createdAt,value
2018-03-06T00:02:02.339Z,29.75
2018-03-06T00:04:34.308Z,23.50
2018-03-06T00:07:06.108Z,25.00
2018-03-06T00:09:47.576Z,22.25
2018-03-06T00:12:36.280Z,26.00
2018-03-06T00:15:25.799Z,24.25
2018-03-06T00:17:59.007Z,23.00
2018-03-06T00:20:31.719Z,25.25
2018-03-06T00:23:03.530Z,30.00
2018-03-06T00:25:35.085Z,23.50
2018-03-06T00:28:06.852Z,21.50
2018-03-06T00:30:39.788Z,29.25
2018-03-06T00:33:11.206Z,24.75
2018-03-06T00:35:45.190Z,27.25
2018-03-06T00:38:16.861Z,27.00
2018-03-06T00:40:49.435Z,27.75
2018-03-06T00:43:21.235Z,25.50
2018-03-06T00:45:59.414Z,22.75
2018-03-06T00:48:31.207Z,27.75
2018-03-06T00:51:03.507Z,25.75
2018-03-06T00:53:36.228Z,28.75
2018-03-06T00:56:08.077Z,25.25
2018-03-06T00:58:39.879Z,28.00
2018-03-06T01:01:12.009Z,25.75
2018-03-06T01:03:44.152Z,25.75
2018-03-06T01:06:15.995Z,26.00
2018-03-06T01:08:48.818Z,28.00
2018-03-06T01:11:21.443Z,24.75
2018-03-06T01:13:53.309Z,29.25
2018-03-06T01:16:27.435Z,25.75
2018-03-06T01:18:59.271Z,24.75
2018-03-06T01:21:31.667Z,26.00
2018-03-06T01:24:03.221Z,28.50
2018-03-06T01:26:34.953Z,23.75
2018-03-06T01:29:06.483Z,29.00
2018-03-06T01:31:38.591Z,28.25
2018-03-06T01:34:10.629Z,29.00
2018-03-06T01:36:42.434Z,28.50
2018-03-06T01:39:14.112Z,27.00
2018-03-06T01:41:45.695Z,28.25
2018-03-06T01:44:18.089Z,31.75
2018-03-06T01:46:50.376Z,31.50
2018-03-06T01:49:23.201Z,34.50
2018-03-06T01:51:59.730Z,33.75
2018-03-06T01:54:31.290Z,31.25
2018-03-06T01:57:03.543Z,30.50
2018-03-06T01:59:34.901Z,32.50
2018-03-06T02:02:06.475Z,33.50
2018-03-06T02:04:37.545Z,34.00
2018-03-06T02:07:08.574Z,32.00
2018-03-06T02:09:39.436Z,28.75
2018-03-06T02:12:11.697Z,33.00
2018-03-06T02:14:44.839Z,37.50
2018-03-06T02:17:18.511Z,32.25
2018-03-06T02:19:50.005Z,35.50
2018-03-06T02:22:21.807Z,35.00
2018-03-06T02:24:52.965Z,36.75
2018-03-06T02:27:25.087Z,33.75
2018-03-06T02:30:07.435Z,33.00
2018-03-06T02:32:39.863Z,32.75
2018-03-06T02:35:11.945Z,26.50
2018-03-06T02:37:43.372Z,32.00
2018-03-06T02:40:14.655Z,35.25
2018-03-06T02:42:45.746Z,32.75
2018-03-06T02:45:17.097Z,36.50
2018-03-06T02:47:48.073Z,39.75
2018-03-06T02:50:19.533Z,34.25
2018-03-06T02:57:24.423Z,40.00
2018-03-06T02:59:55.765Z,32.25
2018-03-06T03:02:28.166Z,42.75
2018-03-06T03:05:00.152Z,39.00
2018-03-06T03:07:30.919Z,34.75
2018-03-06T03:10:02.247Z,40.75
2018-03-06T03:12:33.312Z,32.75
2018-03-06T03:15:06.292Z,36.00
2018-03-06T03:17:38.057Z,35.00
2018-03-06T03:20:08.869Z,33.25
2018-03-06T03:22:39.632Z,36.25
2018-03-06T03:25:11.554Z,37.00
2018-03-06T03:27:42.143Z,37.00
2018-03-06T03:30:16.068Z,39.25
2018-03-06T03:32:46.673Z,41.00
2018-03-06T03:35:17.693Z,39.75
2018-03-06T03:37:48.675Z,36.50
2018-03-06T03:40:24.805Z,38.50
2018-03-06T03:42:58.211Z,35.25
2018-03-06T03:45:30.399Z,35.50
2018-03-06T03:48:11.318Z,34.50
2018-03-06T03:50:47.461Z,43.00
2018-03-06T03:53:34.773Z,37.00
2018-03-06T03:56:05.762Z,37.50
2018-03-06T03:58:36.307Z,42.00
2018-03-06T04:01:07.223Z,39.50
2018-03-06T04:03:38.005Z,38.00
2018-03-06T04:06:09.209Z,42.25
2018-03-06T04:08:39.791Z,39.00
2018-03-06T04:11:11.105Z,40.75
2018-03-06T04:13:42.618Z,41.50
2018-03-06T04:16:14.320Z,40.50
2018-03-06T04:18:45.960Z,35.00
2018-03-06T04:21:18.420Z,42.75
2018-03-06T04:23:49.074Z,40.25
2018-03-06T04:26:21.595Z,39.00
2018-03-06T04:28:52.460Z,37.75
2018-03-06T04:31:23.478Z,42.75
2018-03-06T04:33:55.413Z,39.25
2018-03-06T04:36:27.687Z,37.50
2018-03-06T04:38:59.144Z,38.25
2018-03-06T04:41:29.949Z,38.50
2018-03-06T04:44:01.983Z,42.50
2018-03-06T04:46:33.810Z,32.00
2018-03-06T04:49:06.670Z,44.50
2018-03-06T04:54:45.987Z,43.50
2018-03-06T04:57:23.776Z,43.50
2018-03-06T04:59:54.369Z,38.00
2018-03-06T05:02:27.229Z,44.50
2018-03-06T05:05:03.584Z,38.00
2018-03-06T05:07:41.531Z,41.00
2018-03-06T05:10:14.686Z,46.75
2018-03-06T05:12:48.304Z,42.00
2018-03-06T05:15:19.814Z,42.00
2018-03-06T05:17:51.642Z,38.75
2018-03-06T05:20:22.922Z,41.50
2018-03-06T05:22:53.850Z,39.75
2018-03-06T05:25:24.911Z,44.25
2018-03-06T05:27:57.620Z,42.00
2018-03-06T05:30:28.708Z,45.50
2018-03-06T05:33:00.140Z,43.50
2018-03-06T05:35:31.419Z,46.00
2018-03-06T05:38:02.851Z,41.25
2018-03-06T05:40:34.327Z,41.00
2018-03-06T05:43:05.293Z,43.50
2018-03-06T05:45:37.399Z,44.00
2018-03-06T05:48:08.650Z,43.75
2018-03-06T05:50:39.746Z,44.25
2018-03-06T05:53:11.862Z,42.25
2018-03-06T05:55:43.165Z,46.00
2018-03-06T05:58:15.630Z,46.75
2018-03-06T06:00:49.181Z,43.50
2018-03-06T06:03:20.553Z,49.00
2018-03-06T06:05:51.964Z,44.25
2018-03-06T06:08:23.979Z,44.75
2018-03-06T06:10:55.693Z,44.75
2018-03-06T06:13:28.943Z,45.50
2018-03-06T06:16:01.475Z,47.75
2018-03-06T06:18:33.287Z,46.75
2018-03-06T06:21:04.620Z,45.25
2018-03-06T06:23:38.720Z,50.75
2018-03-06T06:26:13.104Z,47.25
2018-03-06T06:28:46.203Z,48.00
2018-03-06T06:31:18.939Z,49.00
2018-03-06T06:33:51.051Z,47.25
2018-03-06T06:36:22.249Z,43.00
2018-03-06T06:38:53.898Z,46.75
2018-03-06T06:41:27.220Z,45.50
2018-03-06T06:43:59.336Z,48.25
2018-03-06T06:46:42.447Z,50.25
2018-03-06T06:52:02.479Z,42.50
2018-03-06T06:54:34.731Z,51.75
2018-03-06T06:57:08.126Z,49.75
2018-03-06T06:59:40.399Z,47.25
2018-03-06T07:02:13.592Z,38.25
2018-03-06T07:04:45.178Z,45.75
2018-03-06T07:07:17.095Z,49.75
2018-03-06T07:09:50.777Z,49.50
2018-03-06T07:12:23.222Z,43.50
2018-03-06T07:15:18.427Z,49.00
2018-03-06T07:17:50.940Z,49.50
2018-03-06T07:20:22.496Z,50.50
2018-03-06T07:22:54.382Z,48.50
2018-03-06T07:25:27.028Z,49.00
2018-03-06T07:27:58.874Z,45.00
2018-03-06T07:30:30.428Z,53.00
2018-03-06T07:33:01.948Z,49.00
2018-03-06T07:35:33.298Z,51.25
2018-03-06T07:38:05.174Z,55.00
2018-03-06T07:40:36.384Z,50.00
2018-03-06T07:43:08.511Z,53.75
2018-03-06T07:45:40.889Z,52.50
2018-03-06T07:50:42.014Z,52.25
2018-03-06T07:53:13.814Z,50.50
2018-03-06T07:55:48.116Z,49.00
2018-03-06T07:58:19.661Z,50.00
2018-03-06T08:00:52.482Z,54.75
2018-03-06T08:03:23.980Z,52.75
2018-03-06T08:05:55.889Z,52.25
2018-03-06T08:08:28.184Z,51.75
2018-03-06T08:11:00.290Z,52.00
2018-03-06T08:13:31.640Z,51.25
2018-03-06T08:16:04.294Z,49.75
2018-03-06T08:18:37.128Z,56.75
2018-03-06T08:21:09.066Z,51.25
2018-03-06T08:23:40.607Z,52.00
2018-03-06T08:26:15.411Z,49.50
2018-03-06T08:28:57.341Z,49.50
2018-03-06T08:31:30.392Z,48.50
2018-03-06T08:34:01.611Z,53.25
2018-03-06T08:36:34.481Z,54.75
2018-03-06T08:39:07.184Z,55.25
2018-03-06T08:41:42.224Z,53.50
2018-03-06T08:44:13.936Z,55.00
2018-03-06T08:46:46.332Z,50.50
2018-03-06T08:49:17.622Z,51.50
2018-03-06T08:51:50.061Z,50.25
2018-03-06T08:54:21.592Z,48.50
2018-03-06T08:56:53.206Z,52.25
2018-03-06T08:59:24.681Z,51.00
2018-03-06T09:01:57.517Z,51.75
2018-03-06T09:04:29.435Z,51.00
2018-03-06T09:07:01.612Z,48.50
2018-03-06T09:09:32.978Z,46.25
2018-03-06T09:12:05.409Z,49.25
2018-03-06T09:14:38.158Z,50.75
2018-03-06T09:17:10.477Z,51.25
2018-03-06T09:19:42.418Z,50.00
2018-03-06T09:22:14.240Z,49.75
2018-03-06T09:24:47.064Z,46.75
2018-03-06T09:27:18.771Z,48.25
2018-03-06T09:29:51.046Z,50.00
2018-03-06T09:32:23.799Z,47.25
2018-03-06T09:34:55.009Z,52.25
2018-03-06T09:38:09.661Z,47.00
2018-03-06T09:40:41.872Z,46.00
2018-03-06T09:43:14.659Z,47.25
2018-03-06T09:45:47.957Z,46.50
2018-03-06T09:48:19.739Z,52.00
2018-03-06T09:50:51.723Z,48.25
2018-03-06T09:53:35.635Z,46.00
2018-03-06T09:56:08.791Z,44.75
2018-03-06T09:58:41.146Z,47.75
2018-03-06T10:01:13.624Z,42.50
2018-03-06T10:03:45.681Z,46.00
2018-03-06T10:06:17.340Z,48.75
2018-03-06T10:11:28.878Z,47.00
2018-03-06T10:14:00.125Z,44.25
2018-03-06T10:16:32.412Z,45.25
2018-03-06T10:19:08.772Z,47.00
2018-03-06T10:21:40.870Z,43.50
2018-03-06T10:24:15.734Z,45.25
2018-03-06T10:26:48.580Z,44.00
2018-03-06T10:29:20.100Z,41.75
2018-03-06T10:31:54.082Z,45.25
2018-03-06T10:34:26.145Z,44.75
2018-03-06T10:36:59.135Z,42.00
2018-03-06T10:39:32.391Z,41.50
2018-03-06T10:42:14.047Z,43.00
2018-03-06T10:44:51.984Z,43.75
2018-03-06T10:47:25.276Z,43.50
2018-03-06T10:50:11.176Z,43.25
2018-03-06T10:52:42.930Z,40.50
2018-03-06T10:55:21.867Z,40.50
2018-03-06T10:57:55.041Z,44.50
2018-03-06T11:00:33.359Z,43.25
2018-03-06T11:03:12.677Z,42.50
2018-03-06T11:05:55.888Z,40.25
2018-03-06T11:08:30.160Z,46.00
2018-03-06T11:11:04.922Z,41.00
2018-03-06T11:13:39.162Z,45.75
2018-03-06T11:16:14.569Z,45.75
2018-03-06T11:18:47.356Z,46.00
2018-03-06T11:21:26.256Z,42.00
2018-03-06T11:24:08.582Z,42.75
2018-03-06T11:26:40.852Z,45.75
2018-03-06T11:29:12.636Z,43.00
2018-03-06T11:31:44.820Z,47.25
2018-03-06T11:34:16.805Z,44.00
2018-03-06T11:36:49.276Z,46.50
2018-03-06T11:39:20.435Z,41.75
2018-03-06T11:41:52.859Z,45.50
2018-03-06T11:44:27.336Z,44.25
2018-03-06T11:46:58.744Z,43.00
2018-03-06T11:52:19.270Z,44.00
2018-03-06T11:54:54.163Z,46.50
2018-03-06T11:57:25.581Z,43.50
2018-03-06T11:59:57.965Z,39.00
2018-03-06T12:02:30.901Z,42.25
2018-03-06T12:05:02.581Z,41.00
2018-03-06T12:07:36.151Z,42.75
2018-03-06T12:10:07.743Z,37.25
2018-03-06T12:12:39.187Z,39.25
2018-03-06T12:15:13.677Z,36.25
2018-03-06T12:17:46.108Z,35.00
2018-03-06T12:20:17.944Z,33.25
2018-03-06T12:22:49.554Z,32.50
2018-03-06T12:25:22.693Z,35.25
2018-03-06T12:27:59.883Z,33.50
2018-03-06T12:30:34.604Z,38.75
2018-03-06T12:33:06.840Z,34.75
2018-03-06T12:35:39.440Z,36.50
2018-03-06T12:38:12.658Z,35.00
2018-03-06T12:40:44.363Z,34.25
2018-03-06T12:43:16.618Z,34.50
2018-03-06T12:45:53.456Z,34.00
2018-03-06T12:48:25.277Z,37.00
2018-03-06T12:50:57.761Z,35.25
2018-03-06T12:53:31.104Z,40.25
2018-03-06T12:56:04.045Z,39.25
2018-03-06T12:58:36.129Z,36.25
2018-03-06T13:01:08.548Z,36.00
2018-03-06T13:03:40.510Z,38.75
2018-03-06T13:06:13.138Z,32.00
2018-03-06T13:08:45.259Z,33.25
2018-03-06T13:11:16.136Z,36.00
2018-03-06T13:13:47.444Z,35.75
2018-03-06T13:16:19.018Z,29.25
2018-03-06T13:18:50.475Z,32.25
2018-03-06T13:24:05.602Z,32.00
2018-03-06T13:26:38.743Z,29.25
2018-03-06T13:29:11.817Z,28.25
2018-03-06T13:31:44.071Z,31.50
2018-03-06T13:34:20.430Z,32.50
2018-03-06T13:36:52.005Z,33.00
2018-03-06T13:39:23.541Z,32.50
2018-03-06T13:41:55.409Z,29.50
2018-03-06T13:44:27.611Z,31.25
2018-03-06T13:46:59.983Z,27.00
2018-03-06T13:49:31.940Z,22.75
2018-03-06T13:54:47.846Z,25.25
2018-03-06T13:57:21.753Z,25.00
2018-03-06T13:59:53.527Z,26.25
2018-03-06T14:02:24.922Z,27.25
2018-03-06T14:04:56.687Z,28.00
2018-03-06T14:07:41.623Z,29.50
2018-03-06T14:10:29.903Z,29.25
2018-03-06T14:13:06.504Z,30.75
2018-03-06T14:15:39.156Z,26.75
2018-03-06T14:18:12.461Z,29.75
2018-03-06T14:20:43.841Z,27.75
2018-03-06T14:23:21.400Z,25.00
2018-03-06T14:25:55.292Z,27.75
2018-03-06T14:28:27.512Z,22.50
2018-03-06T14:31:01.734Z,25.00
2018-03-06T14:33:32.876Z,26.75
2018-03-06T14:36:06.203Z,26.75
2018-03-06T14:38:37.542Z,25.25
2018-03-06T14:41:08.994Z,30.75
2018-03-06T14:43:41.061Z,29.50
2018-03-06T14:46:13.529Z,25.25
2018-03-06T14:48:44.804Z,26.75
2018-03-06T14:51:15.899Z,27.75
2018-03-06T14:56:27.423Z,27.50
2018-03-06T14:59:01.300Z,29.75
2018-03-06T15:01:33.296Z,31.25
2018-03-06T15:04:05.356Z,31.50
2018-03-06T15:06:37.541Z,32.75
2018-03-06T15:09:09.402Z,28.25
2018-03-06T15:11:47.487Z,32.75
2018-03-06T15:14:22.162Z,29.25
2018-03-06T15:16:55.285Z,31.00
2018-03-06T15:19:28.433Z,34.00
2018-03-06T15:22:01.873Z,32.00
2018-03-06T15:24:35.380Z,33.00
2018-03-06T15:27:07.472Z,36.25
2018-03-06T15:29:40.298Z,35.75
2018-03-06T15:32:12.264Z,37.75
2018-03-06T15:34:47.134Z,35.00
2018-03-06T15:37:23.528Z,35.75
2018-03-06T15:39:56.700Z,30.50
2018-03-06T15:42:28.912Z,33.25
2018-03-06T15:45:00.807Z,37.75
2018-03-06T15:47:34.449Z,36.75
2018-03-06T15:50:07.240Z,32.00
2018-03-06T15:52:42.181Z,35.00
2018-03-06T15:55:14.933Z,38.00
2018-03-06T15:57:53.305Z,37.75
2018-03-06T16:03:11.405Z,40.00
2018-03-06T16:05:58.385Z,37.00
2018-03-06T16:08:30.856Z,35.00
2018-03-06T16:11:02.353Z,35.00
2018-03-06T16:13:33.778Z,38.00
2018-03-06T16:16:05.693Z,38.25
2018-03-06T16:18:38.465Z,38.00
2018-03-06T16:21:10.248Z,38.75
2018-03-06T16:23:43.494Z,37.50
2018-03-06T16:26:18.460Z,39.75
2018-03-06T16:28:51.677Z,38.00
2018-03-06T16:33:46.781Z,39.50
2018-03-06T16:36:18.716Z,37.00
2018-03-06T16:38:51.152Z,40.25
2018-03-06T16:41:22.591Z,42.00
2018-03-06T16:43:54.316Z,40.75
2018-03-06T16:46:28.691Z,37.50
2018-03-06T16:49:04.157Z,40.00
2018-03-06T16:51:36.409Z,40.50
2018-03-06T16:54:30.932Z,40.25
2018-03-06T16:57:10.844Z,40.50
2018-03-06T16:59:44.643Z,39.75
2018-03-06T17:02:26.532Z,42.00
2018-03-06T17:04:59.820Z,40.50
2018-03-06T17:07:31.629Z,41.75
2018-03-06T17:10:07.339Z,43.00
2018-03-06T17:12:39.549Z,41.00
2018-03-06T17:21:55.237Z,42.25
2018-03-06T17:24:34.610Z,40.00
2018-03-06T17:27:08.883Z,41.50
2018-03-06T17:29:44.888Z,39.75
2018-03-06T17:32:22.598Z,41.00
2018-03-06T17:34:55.520Z,42.00
2018-03-06T17:37:42.832Z,38.50
2018-03-06T17:40:16.292Z,40.25
2018-03-06T17:45:27.938Z,36.25
2018-03-06T17:48:12.632Z,36.00
2018-03-06T17:50:48.960Z,37.75
2018-03-06T17:53:22.797Z,36.50
2018-03-06T17:55:54.657Z,30.50
2018-03-06T17:58:26.313Z,38.50
2018-03-06T18:01:02.420Z,36.00
2018-03-06T18:03:34.428Z,35.75
2018-03-06T18:06:13.823Z,32.25
2018-03-06T18:08:55.166Z,30.25
2018-03-06T18:11:37.029Z,34.25
2018-03-06T18:17:15.545Z,31.75
2018-03-06T18:19:49.534Z,29.25
2018-03-06T18:22:32.137Z,30.25
2018-03-06T18:25:10.079Z,28.25
2018-03-06T18:27:45.698Z,31.00
2018-03-06T18:30:19.147Z,31.00
2018-03-06T18:32:50.726Z,34.75
2018-03-06T18:35:23.989Z,29.25
2018-03-06T18:37:56.648Z,29.25
2018-03-06T18:40:30.761Z,28.25
2018-03-06T18:43:03.249Z,28.50
2018-03-06T18:45:37.051Z,27.25
2018-03-06T18:48:14.116Z,27.25
2018-03-06T18:53:54.778Z,31.75
2018-03-06T18:56:34.398Z,28.50
2018-03-06T18:59:06.302Z,27.50
2018-03-06T19:02:45.680Z,29.25
2018-03-06T19:06:25.356Z,27.50
2018-03-06T19:08:56.917Z,27.75
2018-03-06T19:11:28.515Z,24.00
2018-03-06T19:14:00.366Z,24.25
2018-03-06T19:16:34.151Z,26.25
2018-03-06T19:19:06.731Z,27.00
2018-03-06T19:21:40.115Z,29.50
2018-03-06T19:24:19.884Z,29.75
2018-03-06T19:26:51.640Z,27.75
2018-03-06T19:29:39.154Z,29.50
2018-03-06T19:32:31.657Z,27.00
2018-03-06T19:35:05.853Z,30.50
2018-03-06T19:37:37.291Z,29.25
2018-03-06T19:40:12.656Z,29.00
2018-03-06T19:42:44.239Z,30.75
2018-03-06T19:45:22.342Z,31.50
2018-03-06T19:47:53.726Z,33.00
2018-03-06T19:50:31.258Z,32.75
2018-03-06T19:53:18.756Z,30.75
2018-03-06T19:55:49.615Z,31.75
2018-03-06T19:58:21.989Z,32.25
2018-03-06T20:00:57.010Z,31.00
2018-03-06T20:03:28.848Z,29.50
2018-03-06T20:06:00.392Z,30.00
2018-03-06T20:08:31.329Z,29.50
2018-03-06T20:11:02.793Z,30.00
2018-03-06T20:13:34.773Z,32.75
2018-03-06T20:16:07.025Z,26.75
2018-03-06T20:18:37.927Z,31.75
2018-03-06T20:21:09.336Z,32.25
2018-03-06T20:23:40.505Z,33.75
2018-03-06T20:26:12.714Z,34.50
2018-03-06T20:28:43.467Z,31.75
2018-03-06T20:33:22.666Z,38.75
2018-03-06T20:35:56.248Z,37.75
2018-03-06T20:38:31.177Z,37.00
2018-03-06T20:41:02.459Z,38.50
2018-03-06T20:43:33.314Z,39.75
2018-03-06T20:46:08.948Z,40.00
2018-03-06T20:51:17.879Z,38.25
2018-03-06T20:56:00.060Z,41.00
2018-03-06T20:58:31.666Z,45.00
2018-03-06T21:01:04.615Z,41.25
2018-03-06T21:03:35.916Z,43.75
2018-03-06T21:06:06.964Z,41.25
2018-03-06T21:08:39.777Z,44.75
2018-03-06T21:11:11.216Z,44.00
2018-03-06T21:13:43.298Z,43.25
2018-03-06T21:16:14.398Z,42.75
2018-03-06T21:18:45.765Z,44.00
2018-03-06T21:21:17.345Z,45.00
2018-03-06T21:23:49.445Z,43.75
2018-03-06T21:26:20.718Z,47.75
2018-03-06T21:28:51.583Z,42.50
2018-03-06T21:31:23.439Z,47.50
2018-03-06T21:33:54.547Z,44.50
2018-03-06T21:36:25.590Z,44.00
2018-03-06T21:38:56.962Z,45.75
2018-03-06T21:41:28.075Z,44.75
2018-03-06T21:43:59.686Z,46.25
2018-03-06T21:46:32.264Z,46.00
2018-03-06T21:49:04.323Z,48.00
2018-03-06T21:51:36.453Z,47.75
2018-03-06T21:54:08.841Z,47.00
2018-03-06T21:56:41.554Z,45.50
2018-03-06T21:59:12.690Z,50.50
2018-03-06T22:01:45.610Z,50.00
2018-03-06T22:04:16.504Z,48.25
2018-03-06T22:06:47.916Z,49.00
2018-03-06T22:09:20.399Z,47.25
2018-03-06T22:11:52.712Z,48.25
2018-03-06T22:14:23.710Z,47.75
2018-03-06T22:16:55.055Z,44.75
2018-03-06T22:19:27.690Z,48.00
2018-03-06T22:21:59.625Z,48.00
2018-03-06T22:24:31.506Z,50.50
2018-03-06T22:27:02.651Z,48.50
2018-03-06T22:29:39.879Z,51.50
2018-03-06T22:32:12.538Z,48.75
2018-03-06T22:34:44.602Z,48.50
2018-03-06T22:37:15.593Z,50.00
2018-03-06T22:39:46.627Z,45.75
2018-03-06T22:42:18.518Z,48.75
2018-03-06T22:44:50.166Z,48.25
2018-03-06T22:47:21.588Z,48.50
2018-03-06T22:49:52.922Z,48.75
2018-03-06T22:52:23.902Z,51.00
2018-03-06T22:54:55.412Z,53.25
2018-03-06T22:57:27.855Z,49.00
2018-03-06T22:59:59.850Z,50.50
2018-03-06T23:02:31.707Z,50.25
2018-03-06T23:05:04.581Z,50.25
2018-03-06T23:07:36.578Z,51.50
2018-03-06T23:10:07.821Z,50.25
2018-03-06T23:12:38.910Z,48.50
2018-03-06T23:15:12.793Z,49.25
2018-03-06T23:17:44.797Z,52.75
2018-03-06T23:20:16.102Z,49.00
2018-03-06T23:22:48.084Z,53.75
2018-03-06T23:25:19.914Z,51.25
2018-03-06T23:27:52.176Z,52.50
2018-03-06T23:30:23.323Z,54.25
2018-03-06T23:32:54.493Z,49.00
2018-03-06T23:35:25.544Z,50.00
2018-03-06T23:37:56.711Z,51.75
2018-03-06T23:40:29.777Z,50.75
2018-03-06T23:43:02.205Z,51.00
2018-03-06T23:45:36.256Z,51.00
2018-03-06T23:48:07.778Z,50.75
2018-03-06T23:50:39.376Z,50.50
2018-03-06T23:53:11.517Z,51.50
2018-03-06T23:55:42.922Z,50.00
2018-03-06T23:58:14.954Z,49.00
